sensor_id;sensor_type;location;lat;lon;timestamp;temperature;humidity
44517;DHT22;30223;17.182;-96.766;2022-11-15T00:00:56;28.50;48.30
44517;DHT22;30223;17.182;-96.766;2022-11-15T00:03:26;28.50;48.20
44517;DHT22;30223;17.182;-96.766;2022-11-15T00:05:53;28.40;48.40
44517;DHT22;30223;17.182;-96.766;2022-11-15T00:08:19;28.40;49.20
44517;DHT22;30223;17.182;-96.766;2022-11-15T00:10:56;28.30;50.70
44517;DHT22;30223;17.182;-96.766;2022-11-15T00:13:23;28.30;48.90
44517;DHT22;30223;17.182;-96.766;2022-11-15T00:15:50;28.20;48.90
44517;DHT22;30223;17.182;-96.766;2022-11-15T00:18:17;28.20;49.70
44517;DHT22;30223;17.182;-96.766;2022-11-15T00:20:45;28.20;49.10
44517;DHT22;30223;17.182;-96.766;2022-11-15T00:23:14;28.10;48.90
44517;DHT22;30223;17.182;-96.766;2022-11-15T00:25:41;28.10;49.90
44517;DHT22;30223;17.182;-96.766;2022-11-15T00:28:07;28.00;48.60
44517;DHT22;30223;17.182;-96.766;2022-11-15T00:30:34;27.90;47.80
44517;DHT22;30223;17.182;-96.766;2022-11-15T00:33:04;27.80;47.10
44517;DHT22;30223;17.182;-96.766;2022-11-15T00:35:32;27.70;47.20
44517;DHT22;30223;17.182;-96.766;2022-11-15T00:38:00;27.60;47.30
44517;DHT22;30223;17.182;-96.766;2022-11-15T00:40:26;27.50;47.80
44517;DHT22;30223;17.182;-96.766;2022-11-15T00:42:53;27.40;48.30
44517;DHT22;30223;17.182;-96.766;2022-11-15T00:45:19;27.40;47.20
44517;DHT22;30223;17.182;-96.766;2022-11-15T00:47:46;27.30;46.70
44517;DHT22;30223;17.182;-96.766;2022-11-15T00:50:13;27.20;45.50
44517;DHT22;30223;17.182;-96.766;2022-11-15T00:52:40;27.20;45.20
44517;DHT22;30223;17.182;-96.766;2022-11-15T00:55:07;27.20;44.90
44517;DHT22;30223;17.182;-96.766;2022-11-15T00:57:34;27.20;44.60
44517;DHT22;30223;17.182;-96.766;2022-11-15T01:00:00;27.20;44.30
44517;DHT22;30223;17.182;-96.766;2022-11-15T01:02:27;27.10;44.70
44517;DHT22;30223;17.182;-96.766;2022-11-15T01:04:54;27.10;45.50
44517;DHT22;30223;17.182;-96.766;2022-11-15T01:07:20;27.10;46.10
44517;DHT22;30223;17.182;-96.766;2022-11-15T01:09:47;27.10;46.30
44517;DHT22;30223;17.182;-96.766;2022-11-15T01:12:13;27.10;45.50
44517;DHT22;30223;17.182;-96.766;2022-11-15T01:14:40;27.10;45.20
44517;DHT22;30223;17.182;-96.766;2022-11-15T01:17:07;27.10;45.00
44517;DHT22;30223;17.182;-96.766;2022-11-15T01:19:33;27.00;45.20
44517;DHT22;30223;17.182;-96.766;2022-11-15T01:22:00;27.00;45.40
44517;DHT22;30223;17.182;-96.766;2022-11-15T01:24:27;26.90;45.90
44517;DHT22;30223;17.182;-96.766;2022-11-15T01:26:53;26.80;45.70
44517;DHT22;30223;17.182;-96.766;2022-11-15T01:29:20;26.80;45.70
44517;DHT22;30223;17.182;-96.766;2022-11-15T01:31:46;26.70;46.30
44517;DHT22;30223;17.182;-96.766;2022-11-15T01:34:13;26.60;46.80
44517;DHT22;30223;17.182;-96.766;2022-11-15T01:36:41;26.50;46.90
44517;DHT22;30223;17.182;-96.766;2022-11-15T01:39:08;26.50;47.10
44517;DHT22;30223;17.182;-96.766;2022-11-15T01:41:34;26.40;46.70
44517;DHT22;30223;17.182;-96.766;2022-11-15T01:47:10;26.40;46.20
44517;DHT22;30223;17.182;-96.766;2022-11-15T01:49:41;26.30;45.90
44517;DHT22;30223;17.182;-96.766;2022-11-15T01:52:14;26.30;45.80
44517;DHT22;30223;17.182;-96.766;2022-11-15T01:54:43;26.20;45.60
44517;DHT22;30223;17.182;-96.766;2022-11-15T01:57:11;26.20;45.50
44517;DHT22;30223;17.182;-96.766;2022-11-15T01:59:42;26.20;46.10
44517;DHT22;30223;17.182;-96.766;2022-11-15T02:02:09;26.20;46.40
44517;DHT22;30223;17.182;-96.766;2022-11-15T02:04:45;26.10;45.70
44517;DHT22;30223;17.182;-96.766;2022-11-15T02:07:17;26.10;45.90
44517;DHT22;30223;17.182;-96.766;2022-11-15T02:09:45;26.10;45.60
44517;DHT22;30223;17.182;-96.766;2022-11-15T02:12:15;26.00;46.20
44517;DHT22;30223;17.182;-96.766;2022-11-15T02:14:44;26.00;46.30
44517;DHT22;30223;17.182;-96.766;2022-11-15T02:29:08;25.50;45.90
44517;DHT22;30223;17.182;-96.766;2022-11-15T02:34:58;25.40;46.30
44517;DHT22;30223;17.182;-96.766;2022-11-15T02:40:41;25.40;46.50
44517;DHT22;30223;17.182;-96.766;2022-11-15T02:43:16;25.50;46.70
44517;DHT22;30223;17.182;-96.766;2022-11-15T02:49:29;25.60;46.60
44517;DHT22;30223;17.182;-96.766;2022-11-15T02:51:57;25.50;46.30
44517;DHT22;30223;17.182;-96.766;2022-11-15T02:54:31;25.60;46.50
44517;DHT22;30223;17.182;-96.766;2022-11-15T02:57:06;25.70;46.70
44517;DHT22;30223;17.182;-96.766;2022-11-15T03:08:26;25.70;45.80
44517;DHT22;30223;17.182;-96.766;2022-11-15T03:11:15;25.60;46.10
44517;DHT22;30223;17.182;-96.766;2022-11-15T03:13:56;25.70;46.00
44517;DHT22;30223;17.182;-96.766;2022-11-15T03:16:34;25.70;45.90
44517;DHT22;30223;17.182;-96.766;2022-11-15T03:19:17;25.60;45.80
44517;DHT22;30223;17.182;-96.766;2022-11-15T03:21:48;25.60;45.80
44517;DHT22;30223;17.182;-96.766;2022-11-15T03:24:16;25.50;45.60
44517;DHT22;30223;17.182;-96.766;2022-11-15T03:26:45;25.50;45.70
44517;DHT22;30223;17.182;-96.766;2022-11-15T03:29:22;25.50;45.70
44517;DHT22;30223;17.182;-96.766;2022-11-15T03:31:55;25.40;46.50
44517;DHT22;30223;17.182;-96.766;2022-11-15T03:34:26;25.30;45.80
44517;DHT22;30223;17.182;-96.766;2022-11-15T03:36:54;25.20;45.30
44517;DHT22;30223;17.182;-96.766;2022-11-15T03:39:22;25.10;45.10
44517;DHT22;30223;17.182;-96.766;2022-11-15T03:44:47;25.00;45.70
44517;DHT22;30223;17.182;-96.766;2022-11-15T03:50:08;24.90;46.30
44517;DHT22;30223;17.182;-96.766;2022-11-15T03:52:37;24.80;46.40
44517;DHT22;30223;17.182;-96.766;2022-11-15T03:55:05;24.70;46.30
44517;DHT22;30223;17.182;-96.766;2022-11-15T03:57:32;24.70;46.50
44517;DHT22;30223;17.182;-96.766;2022-11-15T03:59:59;24.60;46.30
44517;DHT22;30223;17.182;-96.766;2022-11-15T04:02:26;24.60;46.50
44517;DHT22;30223;17.182;-96.766;2022-11-15T04:04:52;24.60;47.00
44517;DHT22;30223;17.182;-96.766;2022-11-15T04:07:19;24.60;47.20
44517;DHT22;30223;17.182;-96.766;2022-11-15T04:09:46;24.60;46.80
44517;DHT22;30223;17.182;-96.766;2022-11-15T04:12:37;24.60;47.00
44517;DHT22;30223;17.182;-96.766;2022-11-15T04:15:09;24.60;47.00
44517;DHT22;30223;17.182;-96.766;2022-11-15T04:18:02;24.60;47.10
44517;DHT22;30223;17.182;-96.766;2022-11-15T04:20:30;24.60;47.30
44517;DHT22;30223;17.182;-96.766;2022-11-15T04:23:20;24.60;47.10
44517;DHT22;30223;17.182;-96.766;2022-11-15T04:26:16;24.70;47.00
44517;DHT22;30223;17.182;-96.766;2022-11-15T04:28:44;24.60;47.00
44517;DHT22;30223;17.182;-96.766;2022-11-15T04:31:28;24.70;47.20
44517;DHT22;30223;17.182;-96.766;2022-11-15T04:33:55;24.70;47.10
44517;DHT22;30223;17.182;-96.766;2022-11-15T04:36:22;24.70;46.60
44517;DHT22;30223;17.182;-96.766;2022-11-15T04:39:07;24.60;46.80
44517;DHT22;30223;17.182;-96.766;2022-11-15T04:41:34;24.60;46.60
44517;DHT22;30223;17.182;-96.766;2022-11-15T04:44:00;24.60;46.60
44517;DHT22;30223;17.182;-96.766;2022-11-15T04:46:27;24.50;46.40
44517;DHT22;30223;17.182;-96.766;2022-11-15T04:48:54;24.50;46.60
44517;DHT22;30223;17.182;-96.766;2022-11-15T04:51:20;24.40;46.70
44517;DHT22;30223;17.182;-96.766;2022-11-15T04:53:47;24.40;46.50
44517;DHT22;30223;17.182;-96.766;2022-11-15T04:56:14;24.30;46.90
44517;DHT22;30223;17.182;-96.766;2022-11-15T04:58:40;24.20;46.90
44517;DHT22;30223;17.182;-96.766;2022-11-15T05:01:13;24.30;47.30
44517;DHT22;30223;17.182;-96.766;2022-11-15T05:03:43;24.20;46.90
44517;DHT22;30223;17.182;-96.766;2022-11-15T05:06:28;24.20;47.10
44517;DHT22;30223;17.182;-96.766;2022-11-15T05:08:56;24.10;46.90
44517;DHT22;30223;17.182;-96.766;2022-11-15T05:11:22;24.00;46.90
44517;DHT22;30223;17.182;-96.766;2022-11-15T05:13:49;24.00;47.90
44517;DHT22;30223;17.182;-96.766;2022-11-15T05:16:16;23.90;47.80
44517;DHT22;30223;17.182;-96.766;2022-11-15T05:18:42;24.00;47.70
44517;DHT22;30223;17.182;-96.766;2022-11-15T05:21:14;23.90;47.20
44517;DHT22;30223;17.182;-96.766;2022-11-15T05:23:41;23.90;47.50
44517;DHT22;30223;17.182;-96.766;2022-11-15T05:26:08;23.80;47.70
44517;DHT22;30223;17.182;-96.766;2022-11-15T05:28:35;23.80;47.70
44517;DHT22;30223;17.182;-96.766;2022-11-15T05:31:04;23.70;47.80
44517;DHT22;30223;17.182;-96.766;2022-11-15T05:33:31;23.80;48.20
44517;DHT22;30223;17.182;-96.766;2022-11-15T05:36:09;23.80;48.10
44517;DHT22;30223;17.182;-96.766;2022-11-15T05:38:38;23.70;47.70
44517;DHT22;30223;17.182;-96.766;2022-11-15T05:41:05;23.60;47.80
44517;DHT22;30223;17.182;-96.766;2022-11-15T05:43:35;23.50;47.90
44517;DHT22;30223;17.182;-96.766;2022-11-15T05:46:04;23.70;48.20
44517;DHT22;30223;17.182;-96.766;2022-11-15T05:48:32;23.80;48.50
44517;DHT22;30223;17.182;-96.766;2022-11-15T05:51:00;24.00;48.20
44517;DHT22;30223;17.182;-96.766;2022-11-15T05:53:27;24.00;48.30
44517;DHT22;30223;17.182;-96.766;2022-11-15T05:55:53;24.20;48.80
44517;DHT22;30223;17.182;-96.766;2022-11-15T05:58:20;24.30;48.10
44517;DHT22;30223;17.182;-96.766;2022-11-15T06:00:47;24.40;48.30
44517;DHT22;30223;17.182;-96.766;2022-11-15T06:03:14;24.50;48.40
44517;DHT22;30223;17.182;-96.766;2022-11-15T06:05:40;24.50;48.20
44517;DHT22;30223;17.182;-96.766;2022-11-15T06:08:07;24.50;48.10
44517;DHT22;30223;17.182;-96.766;2022-11-15T06:10:34;24.50;48.00
44517;DHT22;30223;17.182;-96.766;2022-11-15T06:13:01;24.50;48.00
44517;DHT22;30223;17.182;-96.766;2022-11-15T06:15:29;24.50;48.00
44517;DHT22;30223;17.182;-96.766;2022-11-15T06:17:59;24.50;47.90
44517;DHT22;30223;17.182;-96.766;2022-11-15T06:20:29;24.40;47.90
44517;DHT22;30223;17.182;-96.766;2022-11-15T06:23:03;24.40;48.00
44517;DHT22;30223;17.182;-96.766;2022-11-15T06:25:30;24.30;48.10
44517;DHT22;30223;17.182;-96.766;2022-11-15T06:27:58;24.30;48.10
44517;DHT22;30223;17.182;-96.766;2022-11-15T06:30:26;24.20;48.20
44517;DHT22;30223;17.182;-96.766;2022-11-15T06:32:59;24.20;48.30
44517;DHT22;30223;17.182;-96.766;2022-11-15T06:35:27;24.20;48.40
44517;DHT22;30223;17.182;-96.766;2022-11-15T06:37:53;24.10;48.40
44517;DHT22;30223;17.182;-96.766;2022-11-15T06:40:20;24.10;48.50
44517;DHT22;30223;17.182;-96.766;2022-11-15T06:42:46;24.10;48.60
44517;DHT22;30223;17.182;-96.766;2022-11-15T06:45:13;24.10;48.60
44517;DHT22;30223;17.182;-96.766;2022-11-15T06:47:46;24.00;48.60
44517;DHT22;30223;17.182;-96.766;2022-11-15T06:50:13;24.00;48.70
44517;DHT22;30223;17.182;-96.766;2022-11-15T06:52:40;24.00;48.90
44517;DHT22;30223;17.182;-96.766;2022-11-15T06:55:07;23.90;48.80
44517;DHT22;30223;17.182;-96.766;2022-11-15T06:57:34;23.90;48.90
44517;DHT22;30223;17.182;-96.766;2022-11-15T07:00:01;23.90;48.90
44517;DHT22;30223;17.182;-96.766;2022-11-15T07:02:28;23.90;49.00
44517;DHT22;30223;17.182;-96.766;2022-11-15T07:04:54;23.90;49.10
44517;DHT22;30223;17.182;-96.766;2022-11-15T07:07:21;23.90;49.20
44517;DHT22;30223;17.182;-96.766;2022-11-15T07:09:47;23.90;49.30
44517;DHT22;30223;17.182;-96.766;2022-11-15T07:12:14;23.80;49.20
44517;DHT22;30223;17.182;-96.766;2022-11-15T07:14:40;23.80;49.30
44517;DHT22;30223;17.182;-96.766;2022-11-15T07:17:07;23.80;49.40
44517;DHT22;30223;17.182;-96.766;2022-11-15T07:19:34;23.80;49.50
44517;DHT22;30223;17.182;-96.766;2022-11-15T07:22:00;23.80;49.50
44517;DHT22;30223;17.182;-96.766;2022-11-15T07:24:27;23.80;49.60
44517;DHT22;30223;17.182;-96.766;2022-11-15T07:26:53;23.80;49.60
44517;DHT22;30223;17.182;-96.766;2022-11-15T07:29:20;23.70;49.60
44517;DHT22;30223;17.182;-96.766;2022-11-15T07:31:46;23.70;49.70
44517;DHT22;30223;17.182;-96.766;2022-11-15T07:34:14;23.70;49.70
44517;DHT22;30223;17.182;-96.766;2022-11-15T07:36:40;23.70;49.70
44517;DHT22;30223;17.182;-96.766;2022-11-15T07:39:07;23.70;49.70
44517;DHT22;30223;17.182;-96.766;2022-11-15T07:41:33;23.70;49.80
44517;DHT22;30223;17.182;-96.766;2022-11-15T07:44:01;23.70;49.80
44517;DHT22;30223;17.182;-96.766;2022-11-15T07:46:27;23.60;49.90
44517;DHT22;30223;17.182;-96.766;2022-11-15T07:48:54;23.60;49.90
44517;DHT22;30223;17.182;-96.766;2022-11-15T07:51:20;23.60;50.00
44517;DHT22;30223;17.182;-96.766;2022-11-15T07:53:47;23.60;50.00
44517;DHT22;30223;17.182;-96.766;2022-11-15T07:56:14;23.60;50.00
44517;DHT22;30223;17.182;-96.766;2022-11-15T07:58:40;23.60;50.00
44517;DHT22;30223;17.182;-96.766;2022-11-15T08:01:09;23.60;50.10
44517;DHT22;30223;17.182;-96.766;2022-11-15T08:03:37;23.50;50.10
44517;DHT22;30223;17.182;-96.766;2022-11-15T08:06:03;23.50;50.10
44517;DHT22;30223;17.182;-96.766;2022-11-15T08:08:30;23.50;50.20
44517;DHT22;30223;17.182;-96.766;2022-11-15T08:11:00;23.50;50.20
44517;DHT22;30223;17.182;-96.766;2022-11-15T08:13:27;23.50;50.20
44517;DHT22;30223;17.182;-96.766;2022-11-15T08:16:01;23.50;50.20
44517;DHT22;30223;17.182;-96.766;2022-11-15T08:18:27;23.40;50.20
44517;DHT22;30223;17.182;-96.766;2022-11-15T08:20:57;23.50;50.30
44517;DHT22;30223;17.182;-96.766;2022-11-15T08:23:24;23.40;50.30
44517;DHT22;30223;17.182;-96.766;2022-11-15T08:25:52;23.40;50.30
44517;DHT22;30223;17.182;-96.766;2022-11-15T08:28:19;23.40;50.40
44517;DHT22;30223;17.182;-96.766;2022-11-15T08:30:45;23.40;50.40
44517;DHT22;30223;17.182;-96.766;2022-11-15T08:33:13;23.40;50.50
44517;DHT22;30223;17.182;-96.766;2022-11-15T08:35:41;23.40;50.50
44517;DHT22;30223;17.182;-96.766;2022-11-15T08:38:08;23.40;50.50
44517;DHT22;30223;17.182;-96.766;2022-11-15T08:40:35;23.30;50.50
44517;DHT22;30223;17.182;-96.766;2022-11-15T08:43:02;23.30;50.50
44517;DHT22;30223;17.182;-96.766;2022-11-15T08:45:30;23.30;50.50
44517;DHT22;30223;17.182;-96.766;2022-11-15T08:47:57;23.30;50.60
44517;DHT22;30223;17.182;-96.766;2022-11-15T08:50:23;23.30;50.60
44517;DHT22;30223;17.182;-96.766;2022-11-15T08:52:50;23.30;50.60
44517;DHT22;30223;17.182;-96.766;2022-11-15T08:55:17;23.30;50.70
44517;DHT22;30223;17.182;-96.766;2022-11-15T08:57:43;23.20;50.60
44517;DHT22;30223;17.182;-96.766;2022-11-15T09:00:11;23.20;50.60
44517;DHT22;30223;17.182;-96.766;2022-11-15T09:02:39;23.20;50.70
44517;DHT22;30223;17.182;-96.766;2022-11-15T09:05:06;23.20;51.30
44517;DHT22;30223;17.182;-96.766;2022-11-15T09:07:33;23.20;50.70
44517;DHT22;30223;17.182;-96.766;2022-11-15T09:09:59;23.20;50.70
44517;DHT22;30223;17.182;-96.766;2022-11-15T09:12:26;23.20;50.70
44517;DHT22;30223;17.182;-96.766;2022-11-15T09:14:53;23.20;50.80
44517;DHT22;30223;17.182;-96.766;2022-11-15T09:17:19;23.20;50.80
44517;DHT22;30223;17.182;-96.766;2022-11-15T09:19:46;23.10;50.70
44517;DHT22;30223;17.182;-96.766;2022-11-15T09:22:12;23.10;50.80
44517;DHT22;30223;17.182;-96.766;2022-11-15T09:24:39;23.10;50.80
44517;DHT22;30223;17.182;-96.766;2022-11-15T09:27:05;23.10;50.80
44517;DHT22;30223;17.182;-96.766;2022-11-15T09:29:32;23.10;50.90
44517;DHT22;30223;17.182;-96.766;2022-11-15T09:31:59;23.10;50.90
44517;DHT22;30223;17.182;-96.766;2022-11-15T09:34:26;23.10;50.90
44517;DHT22;30223;17.182;-96.766;2022-11-15T09:36:52;23.10;50.90
44517;DHT22;30223;17.182;-96.766;2022-11-15T09:39:19;23.00;50.80
44517;DHT22;30223;17.182;-96.766;2022-11-15T09:49:59;23.00;50.90
44517;DHT22;30223;17.182;-96.766;2022-11-15T09:52:27;23.00;51.00
44517;DHT22;30223;17.182;-96.766;2022-11-15T09:54:54;23.00;51.00
44517;DHT22;30223;17.182;-96.766;2022-11-15T09:57:23;23.00;51.00
44517;DHT22;30223;17.182;-96.766;2022-11-15T10:00:14;22.90;51.00
44517;DHT22;30223;17.182;-96.766;2022-11-15T10:05:13;22.90;51.00
44517;DHT22;30223;17.182;-96.766;2022-11-15T10:10:13;22.90;51.00
44517;DHT22;30223;17.182;-96.766;2022-11-15T10:12:45;22.80;51.00
44517;DHT22;30223;17.182;-96.766;2022-11-15T10:15:16;22.80;51.00
44517;DHT22;30223;17.182;-96.766;2022-11-15T10:18:14;22.90;51.10
44517;DHT22;30223;17.182;-96.766;2022-11-15T10:20:51;22.80;51.10
44517;DHT22;30223;17.182;-96.766;2022-11-15T10:23:21;22.80;51.10
44517;DHT22;30223;17.182;-96.766;2022-11-15T10:25:51;22.80;51.10
44517;DHT22;30223;17.182;-96.766;2022-11-15T10:28:28;22.80;51.20
44517;DHT22;30223;17.182;-96.766;2022-11-15T10:31:00;22.80;51.20
44517;DHT22;30223;17.182;-96.766;2022-11-15T10:33:35;22.70;51.20
44517;DHT22;30223;17.182;-96.766;2022-11-15T10:36:16;22.70;51.30
44517;DHT22;30223;17.182;-96.766;2022-11-15T10:41:37;22.70;51.30
44517;DHT22;30223;17.182;-96.766;2022-11-15T10:44:30;22.70;51.30
44517;DHT22;30223;17.182;-96.766;2022-11-15T10:49:27;22.60;51.30
44517;DHT22;30223;17.182;-96.766;2022-11-15T10:54:44;22.60;51.30
44517;DHT22;30223;17.182;-96.766;2022-11-15T10:57:23;22.60;51.30
44517;DHT22;30223;17.182;-96.766;2022-11-15T10:59:56;22.60;51.40
44517;DHT22;30223;17.182;-96.766;2022-11-15T11:02:38;22.60;51.40
44517;DHT22;30223;17.182;-96.766;2022-11-15T11:05:34;22.60;51.40
44517;DHT22;30223;17.182;-96.766;2022-11-15T11:08:03;22.50;51.30
44517;DHT22;30223;17.182;-96.766;2022-11-15T11:10:31;22.50;51.40
44517;DHT22;30223;17.182;-96.766;2022-11-15T11:13:22;22.50;51.40
44517;DHT22;30223;17.182;-96.766;2022-11-15T11:16:14;22.50;51.40
44517;DHT22;30223;17.182;-96.766;2022-11-15T11:41:38;22.30;51.60
44517;DHT22;30223;17.182;-96.766;2022-11-15T11:49:30;22.30;51.60
44517;DHT22;30223;17.182;-96.766;2022-11-15T11:52:22;22.30;51.60
44517;DHT22;30223;17.182;-96.766;2022-11-15T12:00:21;22.20;51.60
44517;DHT22;30223;17.182;-96.766;2022-11-15T12:03:11;22.20;51.60
44517;DHT22;30223;17.182;-96.766;2022-11-15T12:06:31;22.20;51.60
44517;DHT22;30223;17.182;-96.766;2022-11-15T12:17:13;22.10;51.60
44517;DHT22;30223;17.182;-96.766;2022-11-15T12:19:42;22.10;51.70
44517;DHT22;30223;17.182;-96.766;2022-11-15T12:22:22;22.00;51.70
44517;DHT22;30223;17.182;-96.766;2022-11-15T12:27:53;22.00;51.60
44517;DHT22;30223;17.182;-96.766;2022-11-15T12:30:22;22.00;51.70
44517;DHT22;30223;17.182;-96.766;2022-11-15T12:32:58;22.00;51.70
44517;DHT22;30223;17.182;-96.766;2022-11-15T12:35:40;22.00;51.70
44517;DHT22;30223;17.182;-96.766;2022-11-15T12:38:11;22.00;51.70
44517;DHT22;30223;17.182;-96.766;2022-11-15T12:41:21;21.90;51.70
44517;DHT22;30223;17.182;-96.766;2022-11-15T12:43:41;21.90;51.70
44517;DHT22;30223;17.182;-96.766;2022-11-15T12:51:05;21.90;51.70
44517;DHT22;30223;17.182;-96.766;2022-11-15T12:53:33;21.90;51.70
44517;DHT22;30223;17.182;-96.766;2022-11-15T12:58:57;21.80;51.70
44517;DHT22;30223;17.182;-96.766;2022-11-15T13:06:50;21.80;51.80
44517;DHT22;30223;17.182;-96.766;2022-11-15T13:12:09;21.70;51.80
44517;DHT22;30223;17.182;-96.766;2022-11-15T13:14:52;21.70;51.80
44517;DHT22;30223;17.182;-96.766;2022-11-15T13:19:48;21.60;51.80
44517;DHT22;30223;17.182;-96.766;2022-11-15T13:22:18;21.70;51.90
44517;DHT22;30223;17.182;-96.766;2022-11-15T13:25:03;21.70;51.90
44517;DHT22;30223;17.182;-96.766;2022-11-15T13:27:30;21.60;51.90
44517;DHT22;30223;17.182;-96.766;2022-11-15T13:29:57;21.60;51.90
44517;DHT22;30223;17.182;-96.766;2022-11-15T13:32:24;21.60;51.90
44517;DHT22;30223;17.182;-96.766;2022-11-15T13:34:50;21.60;51.90
44517;DHT22;30223;17.182;-96.766;2022-11-15T13:37:29;21.60;51.90
44517;DHT22;30223;17.182;-96.766;2022-11-15T13:40:22;21.60;52.00
44517;DHT22;30223;17.182;-96.766;2022-11-15T13:42:50;21.60;52.10
44517;DHT22;30223;17.182;-96.766;2022-11-15T13:45:18;21.60;52.10
44517;DHT22;30223;17.182;-96.766;2022-11-15T13:47:47;21.60;52.10
44517;DHT22;30223;17.182;-96.766;2022-11-15T13:50:17;21.60;52.70
44517;DHT22;30223;17.182;-96.766;2022-11-15T13:52:45;21.60;52.20
44517;DHT22;30223;17.182;-96.766;2022-11-15T13:55:21;21.60;52.20
44517;DHT22;30223;17.182;-96.766;2022-11-15T14:00:37;21.60;52.30
44517;DHT22;30223;17.182;-96.766;2022-11-15T14:06:13;21.60;52.30
44517;DHT22;30223;17.182;-96.766;2022-11-15T14:08:57;21.60;52.40
44517;DHT22;30223;17.182;-96.766;2022-11-15T14:11:24;21.60;52.50
44517;DHT22;30223;17.182;-96.766;2022-11-15T14:16:42;21.60;52.50
44517;DHT22;30223;17.182;-96.766;2022-11-15T14:19:32;21.60;52.50
44517;DHT22;30223;17.182;-96.766;2022-11-15T14:24:36;21.60;52.50
44517;DHT22;30223;17.182;-96.766;2022-11-15T14:27:26;21.60;52.60
44517;DHT22;30223;17.182;-96.766;2022-11-15T14:29:54;21.60;52.60
44517;DHT22;30223;17.182;-96.766;2022-11-15T14:32:29;21.60;52.60
44517;DHT22;30223;17.182;-96.766;2022-11-15T14:35:00;21.60;52.60
44517;DHT22;30223;17.182;-96.766;2022-11-15T14:37:29;21.60;52.70
44517;DHT22;30223;17.182;-96.766;2022-11-15T14:40:08;21.70;55.40
44517;DHT22;30223;17.182;-96.766;2022-11-15T14:42:35;21.70;53.60
44517;DHT22;30223;17.182;-96.766;2022-11-15T14:45:02;21.90;54.10
44517;DHT22;30223;17.182;-96.766;2022-11-15T14:47:29;22.00;54.00
44517;DHT22;30223;17.182;-96.766;2022-11-15T14:49:55;22.10;53.90
44517;DHT22;30223;17.182;-96.766;2022-11-15T14:52:29;22.20;53.60
44517;DHT22;30223;17.182;-96.766;2022-11-15T14:54:56;22.30;53.20
44517;DHT22;30223;17.182;-96.766;2022-11-15T14:57:24;22.30;53.20
44517;DHT22;30223;17.182;-96.766;2022-11-15T14:59:50;22.30;53.00
44517;DHT22;30223;17.182;-96.766;2022-11-15T15:02:25;22.30;52.40
44517;DHT22;30223;17.182;-96.766;2022-11-15T15:04:53;22.30;52.30
44517;DHT22;30223;17.182;-96.766;2022-11-15T15:07:19;22.30;52.20
44517;DHT22;30223;17.182;-96.766;2022-11-15T15:09:46;22.30;52.40
44517;DHT22;30223;17.182;-96.766;2022-11-15T15:12:22;22.20;52.90
44517;DHT22;30223;17.182;-96.766;2022-11-15T15:14:50;22.20;52.70
44517;DHT22;30223;17.182;-96.766;2022-11-15T15:17:17;22.20;52.80
44517;DHT22;30223;17.182;-96.766;2022-11-15T15:19:43;22.20;53.20
44517;DHT22;30223;17.182;-96.766;2022-11-15T15:22:18;22.10;53.10
44517;DHT22;30223;17.182;-96.766;2022-11-15T15:24:45;22.10;53.10
44517;DHT22;30223;17.182;-96.766;2022-11-15T15:27:12;22.10;53.60
44517;DHT22;30223;17.182;-96.766;2022-11-15T15:29:39;22.10;54.00
44517;DHT22;30223;17.182;-96.766;2022-11-15T15:32:06;22.10;54.30
44517;DHT22;30223;17.182;-96.766;2022-11-15T15:34:33;22.10;54.20
44517;DHT22;30223;17.182;-96.766;2022-11-15T15:39:39;22.10;54.60
44517;DHT22;30223;17.182;-96.766;2022-11-15T15:42:05;22.20;54.80
44517;DHT22;30223;17.182;-96.766;2022-11-15T15:44:32;22.10;55.30
44517;DHT22;30223;17.182;-96.766;2022-11-15T15:46:58;22.20;55.40
44517;DHT22;30223;17.182;-96.766;2022-11-15T15:49:25;22.10;55.50
44517;DHT22;30223;17.182;-96.766;2022-11-15T15:51:51;22.10;55.20
44517;DHT22;30223;17.182;-96.766;2022-11-15T15:54:18;22.20;55.50
44517;DHT22;30223;17.182;-96.766;2022-11-15T15:56:45;22.20;55.40
44517;DHT22;30223;17.182;-96.766;2022-11-15T15:59:11;22.20;55.40
44517;DHT22;30223;17.182;-96.766;2022-11-15T16:01:38;22.20;55.70
44517;DHT22;30223;17.182;-96.766;2022-11-15T16:04:04;22.20;55.20
44517;DHT22;30223;17.182;-96.766;2022-11-15T16:06:38;22.30;55.20
44517;DHT22;30223;17.182;-96.766;2022-11-15T16:09:05;22.40;55.20
44517;DHT22;30223;17.182;-96.766;2022-11-15T16:11:32;22.50;55.00
44517;DHT22;30223;17.182;-96.766;2022-11-15T16:13:59;22.60;55.50
44517;DHT22;30223;17.182;-96.766;2022-11-15T16:16:26;22.70;54.40
44517;DHT22;30223;17.182;-96.766;2022-11-15T16:18:52;22.90;54.40
44517;DHT22;30223;17.182;-96.766;2022-11-15T16:21:20;22.90;52.30
44517;DHT22;30223;17.182;-96.766;2022-11-15T16:23:46;23.00;52.00
44517;DHT22;30223;17.182;-96.766;2022-11-15T16:26:36;23.20;51.20
44517;DHT22;30223;17.182;-96.766;2022-11-15T16:29:03;23.30;50.80
44517;DHT22;30223;17.182;-96.766;2022-11-15T16:31:30;23.40;49.80
44517;DHT22;30223;17.182;-96.766;2022-11-15T16:33:56;23.50;50.20
44517;DHT22;30223;17.182;-96.766;2022-11-15T16:36:25;23.60;50.40
44517;DHT22;30223;17.182;-96.766;2022-11-15T16:38:52;23.70;47.90
44517;DHT22;30223;17.182;-96.766;2022-11-15T16:41:19;23.80;48.90
44517;DHT22;30223;17.182;-96.766;2022-11-15T16:43:46;23.80;47.10
44517;DHT22;30223;17.182;-96.766;2022-11-15T16:46:21;23.90;47.10
44517;DHT22;30223;17.182;-96.766;2022-11-15T16:48:48;24.10;47.10
44517;DHT22;30223;17.182;-96.766;2022-11-15T16:51:15;24.10;48.10
44517;DHT22;30223;17.182;-96.766;2022-11-15T16:53:43;24.20;47.40
44517;DHT22;30223;17.182;-96.766;2022-11-15T16:56:24;24.20;46.90
44517;DHT22;30223;17.182;-96.766;2022-11-15T16:58:52;24.30;47.10
44517;DHT22;30223;17.182;-96.766;2022-11-15T17:01:24;24.30;45.10
44517;DHT22;30223;17.182;-96.766;2022-11-15T17:03:51;24.40;44.50
44517;DHT22;30223;17.182;-96.766;2022-11-15T17:06:18;24.40;44.20
44517;DHT22;30223;17.182;-96.766;2022-11-15T17:08:46;24.40;43.90
44517;DHT22;30223;17.182;-96.766;2022-11-15T17:11:18;24.60;43.60
44517;DHT22;30223;17.182;-96.766;2022-11-15T17:13:45;24.60;43.80
44517;DHT22;30223;17.182;-96.766;2022-11-15T17:16:15;24.70;43.60
44517;DHT22;30223;17.182;-96.766;2022-11-15T17:18:42;24.80;43.90
44517;DHT22;30223;17.182;-96.766;2022-11-15T17:21:14;24.80;44.20
44517;DHT22;30223;17.182;-96.766;2022-11-15T17:23:42;24.90;44.00
44517;DHT22;30223;17.182;-96.766;2022-11-15T17:26:10;24.90;44.40
44517;DHT22;30223;17.182;-96.766;2022-11-15T17:28:38;25.00;43.50
44517;DHT22;30223;17.182;-96.766;2022-11-15T17:31:09;25.10;42.30
44517;DHT22;30223;17.182;-96.766;2022-11-15T17:33:37;25.10;40.00
44517;DHT22;30223;17.182;-96.766;2022-11-15T17:36:07;25.10;42.00
44517;DHT22;30223;17.182;-96.766;2022-11-15T17:38:34;25.20;41.10